sensor_id;sensor_type;location;lat;lon;timestamp;temperature;humidity
80964;DHT22;70425;59.322;13.486;2023-07-20T00:01:57;13.60;99.90
80964;DHT22;70425;59.322;13.486;2023-07-20T00:04:46;13.60;99.90
80964;DHT22;70425;59.322;13.486;2023-07-20T00:07:35;13.60;99.90
80964;DHT22;70425;59.322;13.486;2023-07-20T00:10:23;13.60;99.90
80964;DHT22;70425;59.322;13.486;2023-07-20T00:13:12;13.70;99.90
80964;DHT22;70425;59.322;13.486;2023-07-20T00:16:03;13.70;99.90
80964;DHT22;70425;59.322;13.486;2023-07-20T00:18:52;13.70;99.90
80964;DHT22;70425;59.322;13.486;2023-07-20T00:21:41;13.70;99.90
80964;DHT22;70425;59.322;13.486;2023-07-20T00:24:30;13.80;99.90
80964;DHT22;70425;59.322;13.486;2023-07-20T00:27:19;13.80;99.90
80964;DHT22;70425;59.322;13.486;2023-07-20T00:32:49;13.80;99.90
80964;DHT22;70425;59.322;13.486;2023-07-20T00:35:37;13.80;99.90
80964;DHT22;70425;59.322;13.486;2023-07-20T00:38:25;13.80;99.90
80964;DHT22;70425;59.322;13.486;2023-07-20T00:43:56;13.80;99.90
80964;DHT22;70425;59.322;13.486;2023-07-20T00:46:45;13.80;99.90
80964;DHT22;70425;59.322;13.486;2023-07-20T00:49:34;13.80;99.90
80964;DHT22;70425;59.322;13.486;2023-07-20T00:52:23;13.70;99.90
80964;DHT22;70425;59.322;13.486;2023-07-20T00:55:12;13.70;99.90
80964;DHT22;70425;59.322;13.486;2023-07-20T00:58:01;13.70;99.90
80964;DHT22;70425;59.322;13.486;2023-07-20T01:00:50;13.60;99.90
80964;DHT22;70425;59.322;13.486;2023-07-20T01:06:26;13.40;99.90
80964;DHT22;70425;59.322;13.486;2023-07-20T01:11:59;13.40;99.90
80964;DHT22;70425;59.322;13.486;2023-07-20T01:14:48;13.40;99.90
80964;DHT22;70425;59.322;13.486;2023-07-20T01:17:37;13.30;99.90
80964;DHT22;70425;59.322;13.486;2023-07-20T01:20:26;13.30;99.90
80964;DHT22;70425;59.322;13.486;2023-07-20T01:23:31;13.40;99.90
80964;DHT22;70425;59.322;13.486;2023-07-20T01:26:32;13.30;99.90
80964;DHT22;70425;59.322;13.486;2023-07-20T01:29:33;13.30;99.90
80964;DHT22;70425;59.322;13.486;2023-07-20T01:32:24;13.40;99.90
80964;DHT22;70425;59.322;13.486;2023-07-20T01:35:15;13.40;99.90
80964;DHT22;70425;59.322;13.486;2023-07-20T01:38:05;13.40;99.90
80964;DHT22;70425;59.322;13.486;2023-07-20T01:40:54;13.30;99.90
80964;DHT22;70425;59.322;13.486;2023-07-20T01:43:43;13.30;99.90
80964;DHT22;70425;59.322;13.486;2023-07-20T01:46:32;13.30;99.90
80964;DHT22;70425;59.322;13.486;2023-07-20T01:49:20;13.30;99.90
80964;DHT22;70425;59.322;13.486;2023-07-20T01:52:09;13.30;99.90
80964;DHT22;70425;59.322;13.486;2023-07-20T01:54:57;13.20;99.90
80964;DHT22;70425;59.322;13.486;2023-07-20T01:57:46;13.20;99.90
80964;DHT22;70425;59.322;13.486;2023-07-20T02:03:14;13.20;99.90
80964;DHT22;70425;59.322;13.486;2023-07-20T02:06:03;13.20;99.90
80964;DHT22;70425;59.322;13.486;2023-07-20T02:11:32;13.20;99.90
80964;DHT22;70425;59.322;13.486;2023-07-20T02:14:21;13.20;99.90
80964;DHT22;70425;59.322;13.486;2023-07-20T02:17:10;13.10;99.90
80964;DHT22;70425;59.322;13.486;2023-07-20T02:19:59;13.20;99.90
80964;DHT22;70425;59.322;13.486;2023-07-20T02:22:48;13.10;99.90
80964;DHT22;70425;59.322;13.486;2023-07-20T02:25:36;13.10;99.90
80964;DHT22;70425;59.322;13.486;2023-07-20T02:28:25;13.10;99.90
80964;DHT22;70425;59.322;13.486;2023-07-20T02:33:56;13.10;99.90
80964;DHT22;70425;59.322;13.486;2023-07-20T02:39:29;12.90;99.90
80964;DHT22;70425;59.322;13.486;2023-07-20T02:42:18;13.00;99.90
80964;DHT22;70425;59.322;13.486;2023-07-20T02:45:09;13.00;99.90
80964;DHT22;70425;59.322;13.486;2023-07-20T02:50:40;12.90;99.90
80964;DHT22;70425;59.322;13.486;2023-07-20T02:53:29;12.90;99.90
80964;DHT22;70425;59.322;13.486;2023-07-20T02:56:17;12.90;99.90
80964;DHT22;70425;59.322;13.486;2023-07-20T02:59:05;12.90;99.90
80964;DHT22;70425;59.322;13.486;2023-07-20T03:01:54;13.00;99.90
80964;DHT22;70425;59.322;13.486;2023-07-20T03:04:44;13.00;99.90
80964;DHT22;70425;59.322;13.486;2023-07-20T03:07:33;13.00;99.90
80964;DHT22;70425;59.322;13.486;2023-07-20T03:10:21;13.10;99.90
80964;DHT22;70425;59.322;13.486;2023-07-20T03:13:10;13.10;99.90
80964;DHT22;70425;59.322;13.486;2023-07-20T03:15:59;13.10;99.90
80964;DHT22;70425;59.322;13.486;2023-07-20T03:18:48;13.10;99.90
80964;DHT22;70425;59.322;13.486;2023-07-20T03:24:17;13.10;99.90
80964;DHT22;70425;59.322;13.486;2023-07-20T03:27:06;13.20;99.90
80964;DHT22;70425;59.322;13.486;2023-07-20T03:29:55;13.30;99.90
80964;DHT22;70425;59.322;13.486;2023-07-20T03:32:43;13.40;99.90
80964;DHT22;70425;59.322;13.486;2023-07-20T03:35:32;13.40;99.90
80964;DHT22;70425;59.322;13.486;2023-07-20T03:38:21;13.40;99.90
80964;DHT22;70425;59.322;13.486;2023-07-20T03:41:10;13.40;99.90
80964;DHT22;70425;59.322;13.486;2023-07-20T03:43:59;13.50;99.90
80964;DHT22;70425;59.322;13.486;2023-07-20T03:49:27;13.70;99.90
80964;DHT22;70425;59.322;13.486;2023-07-20T03:52:16;14.10;99.90
80964;DHT22;70425;59.322;13.486;2023-07-20T03:57:46;14.40;99.90
80964;DHT22;70425;59.322;13.486;2023-07-20T04:00:34;14.40;99.90
80964;DHT22;70425;59.322;13.486;2023-07-20T04:03:23;14.20;99.90
80964;DHT22;70425;59.322;13.486;2023-07-20T04:06:14;14.30;99.90
80964;DHT22;70425;59.322;13.486;2023-07-20T04:09:05;14.30;99.90
80964;DHT22;70425;59.322;13.486;2023-07-20T04:11:53;14.20;99.90
80964;DHT22;70425;59.322;13.486;2023-07-20T04:14:42;14.20;99.90
80964;DHT22;70425;59.322;13.486;2023-07-20T04:17:31;14.30;99.90
80964;DHT22;70425;59.322;13.486;2023-07-20T04:20:19;14.50;99.90
80964;DHT22;70425;59.322;13.486;2023-07-20T04:23:08;14.60;99.90
80964;DHT22;70425;59.322;13.486;2023-07-20T04:25:57;14.90;99.90
80964;DHT22;70425;59.322;13.486;2023-07-20T04:28:45;14.80;99.90
80964;DHT22;70425;59.322;13.486;2023-07-20T04:31:34;14.80;99.90
80964;DHT22;70425;59.322;13.486;2023-07-20T04:37:03;14.50;99.90
80964;DHT22;70425;59.322;13.486;2023-07-20T04:42:35;14.70;99.90
80964;DHT22;70425;59.322;13.486;2023-07-20T04:45:24;14.90;99.90
80964;DHT22;70425;59.322;13.486;2023-07-20T04:48:14;15.10;99.90
80964;DHT22;70425;59.322;13.486;2023-07-20T04:51:03;15.00;99.90
80964;DHT22;70425;59.322;13.486;2023-07-20T04:53:52;15.10;99.90
80964;DHT22;70425;59.322;13.486;2023-07-20T04:59:27;16.10;99.90
80964;DHT22;70425;59.322;13.486;2023-07-20T05:02:15;16.40;99.90
80964;DHT22;70425;59.322;13.486;2023-07-20T05:05:05;16.70;99.90
80964;DHT22;70425;59.322;13.486;2023-07-20T05:07:54;17.20;99.90
80964;DHT22;70425;59.322;13.486;2023-07-20T05:10:42;17.10;99.90
80964;DHT22;70425;59.322;13.486;2023-07-20T05:13:32;17.20;99.90
80964;DHT22;70425;59.322;13.486;2023-07-20T05:16:20;17.40;99.90
80964;DHT22;70425;59.322;13.486;2023-07-20T05:21:53;17.40;99.90
80964;DHT22;70425;59.322;13.486;2023-07-20T05:24:41;17.60;99.90
80964;DHT22;70425;59.322;13.486;2023-07-20T05:27:30;17.60;99.90
80964;DHT22;70425;59.322;13.486;2023-07-20T05:30:19;17.50;99.90
80964;DHT22;70425;59.322;13.486;2023-07-20T05:33:08;17.50;99.90
80964;DHT22;70425;59.322;13.486;2023-07-20T05:38:44;17.50;99.90
80964;DHT22;70425;59.322;13.486;2023-07-20T05:41:33;17.40;99.90
80964;DHT22;70425;59.322;13.486;2023-07-20T05:44:22;17.40;99.90
80964;DHT22;70425;59.322;13.486;2023-07-20T05:47:10;17.50;99.90
80964;DHT22;70425;59.322;13.486;2023-07-20T05:49:59;17.60;99.90
80964;DHT22;70425;59.322;13.486;2023-07-20T05:55:33;17.80;99.90
80964;DHT22;70425;59.322;13.486;2023-07-20T06:01:03;17.60;99.90
80964;DHT22;70425;59.322;13.486;2023-07-20T06:03:52;17.60;99.90
80964;DHT22;70425;59.322;13.486;2023-07-20T06:06:41;17.50;99.90
80964;DHT22;70425;59.322;13.486;2023-07-20T06:09:31;17.50;99.90
80964;DHT22;70425;59.322;13.486;2023-07-20T06:12:20;17.50;99.90
80964;DHT22;70425;59.322;13.486;2023-07-20T06:15:24;17.70;99.90
80964;DHT22;70425;59.322;13.486;2023-07-20T06:18:13;17.60;99.90
80964;DHT22;70425;59.322;13.486;2023-07-20T06:21:02;17.80;99.90
80964;DHT22;70425;59.322;13.486;2023-07-20T06:23:51;17.80;99.90
80964;DHT22;70425;59.322;13.486;2023-07-20T06:26:40;17.70;99.90
80964;DHT22;70425;59.322;13.486;2023-07-20T06:29:28;17.60;99.90
80964;DHT22;70425;59.322;13.486;2023-07-20T06:32:17;17.60;99.90
80964;DHT22;70425;59.322;13.486;2023-07-20T06:35:07;17.90;99.90
80964;DHT22;70425;59.322;13.486;2023-07-20T06:37:56;18.10;99.90
80964;DHT22;70425;59.322;13.486;2023-07-20T06:40:47;18.40;99.90
80964;DHT22;70425;59.322;13.486;2023-07-20T06:43:36;18.20;99.90
80964;DHT22;70425;59.322;13.486;2023-07-20T06:49:07;17.90;99.90
80964;DHT22;70425;59.322;13.486;2023-07-20T06:51:57;17.80;99.90
80964;DHT22;70425;59.322;13.486;2023-07-20T06:54:45;17.30;99.90
80964;DHT22;70425;59.322;13.486;2023-07-20T06:57:34;17.60;99.90
80964;DHT22;70425;59.322;13.486;2023-07-20T07:00:24;17.80;99.90
80964;DHT22;70425;59.322;13.486;2023-07-20T07:03:12;18.00;99.90
80964;DHT22;70425;59.322;13.486;2023-07-20T07:06:01;17.90;99.90
80964;DHT22;70425;59.322;13.486;2023-07-20T07:08:50;17.80;99.90
80964;DHT22;70425;59.322;13.486;2023-07-20T07:14:21;17.80;99.90
80964;DHT22;70425;59.322;13.486;2023-07-20T07:17:10;18.00;99.90
80964;DHT22;70425;59.322;13.486;2023-07-20T07:19:59;17.80;99.90
80964;DHT22;70425;59.322;13.486;2023-07-20T07:25:26;18.00;99.90
80964;DHT22;70425;59.322;13.486;2023-07-20T07:30:57;17.60;99.90
80964;DHT22;70425;59.322;13.486;2023-07-20T07:33:45;17.60;99.90
80964;DHT22;70425;59.322;13.486;2023-07-20T07:39:14;17.60;99.90
80964;DHT22;70425;59.322;13.486;2023-07-20T07:42:03;17.70;99.90
80964;DHT22;70425;59.322;13.486;2023-07-20T07:44:52;17.80;99.90
80964;DHT22;70425;59.322;13.486;2023-07-20T07:47:40;17.70;99.90
80964;DHT22;70425;59.322;13.486;2023-07-20T07:53:09;17.90;99.90
80964;DHT22;70425;59.322;13.486;2023-07-20T07:55:57;18.00;99.90
80964;DHT22;70425;59.322;13.486;2023-07-20T08:01:26;18.10;99.90
80964;DHT22;70425;59.322;13.486;2023-07-20T08:04:14;18.20;99.90
80964;DHT22;70425;59.322;13.486;2023-07-20T08:07:05;18.40;99.90
80964;DHT22;70425;59.322;13.486;2023-07-20T08:09:54;18.50;99.90
80964;DHT22;70425;59.322;13.486;2023-07-20T08:12:43;18.50;99.90
80964;DHT22;70425;59.322;13.486;2023-07-20T08:15:32;18.80;99.90
80964;DHT22;70425;59.322;13.486;2023-07-20T08:18:20;18.70;99.90
80964;DHT22;70425;59.322;13.486;2023-07-20T08:23:50;19.30;99.90
80964;DHT22;70425;59.322;13.486;2023-07-20T08:26:38;19.10;99.90
80964;DHT22;70425;59.322;13.486;2023-07-20T08:29:27;19.00;99.90
80964;DHT22;70425;59.322;13.486;2023-07-20T08:34:54;19.10;99.90
80964;DHT22;70425;59.322;13.486;2023-07-20T08:37:42;19.30;99.90
80964;DHT22;70425;59.322;13.486;2023-07-20T08:43:13;19.50;99.90
80964;DHT22;70425;59.322;13.486;2023-07-20T08:46:04;19.70;99.90
80964;DHT22;70425;59.322;13.486;2023-07-20T08:48:53;19.70;99.90
80964;DHT22;70425;59.322;13.486;2023-07-20T08:51:44;19.60;99.90
80964;DHT22;70425;59.322;13.486;2023-07-20T08:54:34;19.90;99.90
80964;DHT22;70425;59.322;13.486;2023-07-20T08:57:24;19.80;99.90
80964;DHT22;70425;59.322;13.486;2023-07-20T09:00:15;20.10;99.90
80964;DHT22;70425;59.322;13.486;2023-07-20T09:03:05;19.70;99.90
80964;DHT22;70425;59.322;13.486;2023-07-20T09:05:55;19.30;99.90
80964;DHT22;70425;59.322;13.486;2023-07-20T09:08:43;19.50;99.90
80964;DHT22;70425;59.322;13.486;2023-07-20T09:11:32;19.60;99.90
80964;DHT22;70425;59.322;13.486;2023-07-20T09:14:20;19.60;99.90
80964;DHT22;70425;59.322;13.486;2023-07-20T09:17:15;19.50;99.90
80964;DHT22;70425;59.322;13.486;2023-07-20T09:22:52;19.70;99.90
80964;DHT22;70425;59.322;13.486;2023-07-20T09:29:05;19.40;99.90
80964;DHT22;70425;59.322;13.486;2023-07-20T09:45:59;20.00;99.90
80964;DHT22;70425;59.322;13.486;2023-07-20T09:52:46;20.50;99.90
80964;DHT22;70425;59.322;13.486;2023-07-20T09:55:36;20.80;99.90
80964;DHT22;70425;59.322;13.486;2023-07-20T09:58:26;20.60;99.90
80964;DHT22;70425;59.322;13.486;2023-07-20T10:01:18;20.40;99.90
80964;DHT22;70425;59.322;13.486;2023-07-20T10:04:10;20.50;99.90
80964;DHT22;70425;59.322;13.486;2023-07-20T10:09:46;20.50;99.90
80964;DHT22;70425;59.322;13.486;2023-07-20T10:12:36;20.60;99.90
80964;DHT22;70425;59.322;13.486;2023-07-20T10:15:28;20.60;99.90
80964;DHT22;70425;59.322;13.486;2023-07-20T10:18:20;20.30;99.90
80964;DHT22;70425;59.322;13.486;2023-07-20T10:21:13;20.30;99.90
80964;DHT22;70425;59.322;13.486;2023-07-20T10:24:02;20.40;99.90
80964;DHT22;70425;59.322;13.486;2023-07-20T10:26:51;20.50;99.90
80964;DHT22;70425;59.322;13.486;2023-07-20T10:29:41;20.60;99.90
80964;DHT22;70425;59.322;13.486;2023-07-20T10:32:31;20.50;99.90
80964;DHT22;70425;59.322;13.486;2023-07-20T10:35:20;20.40;99.90
80964;DHT22;70425;59.322;13.486;2023-07-20T10:38:09;20.70;99.90
80964;DHT22;70425;59.322;13.486;2023-07-20T10:44:46;20.70;99.90
80964;DHT22;70425;59.322;13.486;2023-07-20T10:47:45;20.40;99.90
80964;DHT22;70425;59.322;13.486;2023-07-20T10:50:35;20.60;99.90
80964;DHT22;70425;59.322;13.486;2023-07-20T10:53:24;20.60;99.90
80964;DHT22;70425;59.322;13.486;2023-07-20T10:56:14;20.60;99.90
80964;DHT22;70425;59.322;13.486;2023-07-20T11:01:48;20.00;99.90
80964;DHT22;70425;59.322;13.486;2023-07-20T11:04:41;19.60;99.90
80964;DHT22;70425;59.322;13.486;2023-07-20T11:07:38;19.70;99.90
80964;DHT22;70425;59.322;13.486;2023-07-20T11:10:27;20.30;99.90
80964;DHT22;70425;59.322;13.486;2023-07-20T11:13:21;20.50;99.90
80964;DHT22;70425;59.322;13.486;2023-07-20T11:16:10;21.00;99.90
80964;DHT22;70425;59.322;13.486;2023-07-20T11:18:59;21.20;99.90
80964;DHT22;70425;59.322;13.486;2023-07-20T11:21:51;21.30;99.90
80964;DHT22;70425;59.322;13.486;2023-07-20T11:24:40;21.10;99.90
80964;DHT22;70425;59.322;13.486;2023-07-20T11:27:30;21.20;99.90
80964;DHT22;70425;59.322;13.486;2023-07-20T11:30:19;20.90;99.90
80964;DHT22;70425;59.322;13.486;2023-07-20T11:33:09;20.70;99.90
80964;DHT22;70425;59.322;13.486;2023-07-20T11:38:51;20.70;99.90
80964;DHT22;70425;59.322;13.486;2023-07-20T11:44:41;21.00;99.90
80964;DHT22;70425;59.322;13.486;2023-07-20T12:01:25;19.70;99.90
80964;DHT22;70425;59.322;13.486;2023-07-20T12:04:17;20.30;99.90
80964;DHT22;70425;59.322;13.486;2023-07-20T12:07:09;20.50;99.90
80964;DHT22;70425;59.322;13.486;2023-07-20T12:26:48;20.60;99.90
80964;DHT22;70425;59.322;13.486;2023-07-20T12:32:19;20.60;99.90
80964;DHT22;70425;59.322;13.486;2023-07-20T12:35:09;20.60;99.90
80964;DHT22;70425;59.322;13.486;2023-07-20T12:38:00;20.70;99.90
80964;DHT22;70425;59.322;13.486;2023-07-20T12:40:49;20.60;99.90
80964;DHT22;70425;59.322;13.486;2023-07-20T13:01:51;20.60;99.90
80964;DHT22;70425;59.322;13.486;2023-07-20T13:08:31;20.70;99.90
80964;DHT22;70425;59.322;13.486;2023-07-20T13:15:41;20.70;99.90
80964;DHT22;70425;59.322;13.486;2023-07-20T13:18:30;20.80;99.90
80964;DHT22;70425;59.322;13.486;2023-07-20T13:21:19;20.70;99.90
80964;DHT22;70425;59.322;13.486;2023-07-20T13:53:37;21.30;99.90
80964;DHT22;70425;59.322;13.486;2023-07-20T13:56:28;21.00;99.90
80964;DHT22;70425;59.322;13.486;2023-07-20T13:59:17;21.00;99.90
80964;DHT22;70425;59.322;13.486;2023-07-20T14:02:08;21.30;99.90
80964;DHT22;70425;59.322;13.486;2023-07-20T14:04:58;21.40;99.90
80964;DHT22;70425;59.322;13.486;2023-07-20T14:07:47;21.40;99.90
80964;DHT22;70425;59.322;13.486;2023-07-20T14:10:38;21.50;99.90
80964;DHT22;70425;59.322;13.486;2023-07-20T14:13:27;21.60;99.90
80964;DHT22;70425;59.322;13.486;2023-07-20T14:16:16;21.40;99.90
80964;DHT22;70425;59.322;13.486;2023-07-20T14:19:05;21.20;99.90
80964;DHT22;70425;59.322;13.486;2023-07-20T14:21:54;21.10;99.90
80964;DHT22;70425;59.322;13.486;2023-07-20T14:24:43;21.10;99.90
80964;DHT22;70425;59.322;13.486;2023-07-20T14:27:33;20.80;99.90
80964;DHT22;70425;59.322;13.486;2023-07-20T14:30:22;20.70;99.90
80964;DHT22;70425;59.322;13.486;2023-07-20T14:33:12;20.70;99.90
80964;DHT22;70425;59.322;13.486;2023-07-20T14:36:01;21.10;99.90
80964;DHT22;70425;59.322;13.486;2023-07-20T14:38:51;21.60;99.90
80964;DHT22;70425;59.322;13.486;2023-07-20T14:45:29;21.80;99.90
80964;DHT22;70425;59.322;13.486;2023-07-20T14:51:11;22.10;99.90
80964;DHT22;70425;59.322;13.486;2023-07-20T14:54:00;22.20;99.90
80964;DHT22;70425;59.322;13.486;2023-07-20T14:56:53;21.80;99.90
80964;DHT22;70425;59.322;13.486;2023-07-20T15:05:14;21.50;99.90
80964;DHT22;70425;59.322;13.486;2023-07-20T15:08:08;21.30;99.90
80964;DHT22;70425;59.322;13.486;2023-07-20T15:11:00;21.20;99.90
80964;DHT22;70425;59.322;13.486;2023-07-20T15:14:07;20.80;99.90
80964;DHT22;70425;59.322;13.486;2023-07-20T15:20:17;20.40;99.90
80964;DHT22;70425;59.322;13.486;2023-07-20T15:23:06;20.50;99.90
80964;DHT22;70425;59.322;13.486;2023-07-20T15:26:00;20.70;99.90
80964;DHT22;70425;59.322;13.486;2023-07-20T15:28:49;20.90;99.90
80964;DHT22;70425;59.322;13.486;2023-07-20T15:31:45;20.60;99.90
80964;DHT22;70425;59.322;13.486;2023-07-20T15:34:48;20.30;99.90
80964;DHT22;70425;59.322;13.486;2023-07-20T15:37:54;20.40;99.90
80964;DHT22;70425;59.322;13.486;2023-07-20T15:40:53;20.40;99.90
80964;DHT22;70425;59.322;13.486;2023-07-20T15:43:49;20.30;99.90
80964;DHT22;70425;59.322;13.486;2023-07-20T15:46:47;20.10;99.90
80964;DHT22;70425;59.322;13.486;2023-07-20T15:49:37;20.00;99.90
80964;DHT22;70425;59.322;13.486;2023-07-20T15:52:28;19.90;99.90
80964;DHT22;70425;59.322;13.486;2023-07-20T17:03:41;20.00;99.90
80964;DHT22;70425;59.322;13.486;2023-07-20T17:24:53;20.60;99.90
80964;DHT22;70425;59.322;13.486;2023-07-20T17:31:07;20.70;99.90
80964;DHT22;70425;59.322;13.486;2023-07-20T17:37:13;20.40;99.90
80964;DHT22;70425;59.322;13.486;2023-07-20T17:43:49;19.80;99.90
80964;DHT22;70425;59.322;13.486;2023-07-20T17:46:40;19.00;99.90
80964;DHT22;70425;59.322;13.486;2023-07-20T17:49:37;18.60;99.90
80964;DHT22;70425;59.322;13.486;2023-07-20T17:52:31;18.50;99.90
80964;DHT22;70425;59.322;13.486;2023-07-20T17:55:23;18.50;99.90
80964;DHT22;70425;59.322;13.486;2023-07-20T17:58:14;18.20;99.90
80964;DHT22;70425;59.322;13.486;2023-07-20T18:01:18;18.00;99.90
80964;DHT22;70425;59.322;13.486;2023-07-20T18:04:09;17.80;99.90
80964;DHT22;70425;59.322;13.486;2023-07-20T18:06:59;17.70;99.90
80964;DHT22;70425;59.322;13.486;2023-07-20T18:09:50;17.40;99.90
80964;DHT22;70425;59.322;13.486;2023-07-20T18:12:39;17.10;99.90
80964;DHT22;70425;59.322;13.486;2023-07-20T18:18:49;16.70;99.90
80964;DHT22;70425;59.322;13.486;2023-07-20T18:21:38;16.30;99.90
80964;DHT22;70425;59.322;13.486;2023-07-20T18:24:29;16.10;99.90
80964;DHT22;70425;59.322;13.486;2023-07-20T18:27:49;15.80;99.90
